createdAt,value
2023-03-13T00:01:49.745Z,98258.00
2023-03-13T00:04:20.677Z,98258.00
2023-03-13T00:06:51.503Z,98266.00
2023-03-13T00:09:23.541Z,98257.00
2023-03-13T00:11:54.675Z,98259.00
2023-03-13T00:14:25.520Z,98253.00
2023-03-13T00:16:56.452Z,98252.00
2023-03-13T00:19:27.420Z,98273.00
2023-03-13T00:21:58.305Z,98244.00
2023-03-13T00:24:29.164Z,98250.00
2023-03-13T00:27:03.375Z,98253.00
2023-03-13T00:29:35.312Z,98248.00
2023-03-13T00:32:06.545Z,98245.00
2023-03-13T00:34:37.543Z,98243.00
2023-03-13T00:37:08.403Z,98242.00
2023-03-13T00:39:39.686Z,98233.00
2023-03-13T00:42:10.814Z,98229.00
2023-03-13T00:44:41.642Z,98232.00
2023-03-13T00:47:12.524Z,98225.00
2023-03-13T00:49:43.403Z,98219.00
2023-03-13T00:52:14.427Z,98224.00
2023-03-13T00:54:45.458Z,98220.00
2023-03-13T00:57:16.288Z,98212.00
2023-03-13T00:59:47.145Z,98219.00
2023-03-13T01:02:18.101Z,98214.00
2023-03-13T01:04:49.060Z,98195.00
2023-03-13T01:07:19.934Z,98198.00
2023-03-13T01:09:50.882Z,98202.00
2023-03-13T01:12:21.723Z,98189.00
2023-03-13T01:14:52.752Z,98189.00
2023-03-13T01:17:23.616Z,98180.00
2023-03-13T01:19:57.403Z,98176.00
2023-03-13T01:22:28.232Z,98176.00
2023-03-13T01:24:59.093Z,98163.00
2023-03-13T01:27:30.711Z,98156.00
2023-03-13T01:30:01.610Z,98156.00
2023-03-13T01:32:34.123Z,98156.00
2023-03-13T01:35:05.423Z,98151.00
2023-03-13T01:37:36.331Z,98142.00
2023-03-13T01:40:07.861Z,98142.00
2023-03-13T01:42:59.662Z,98139.00
2023-03-13T01:46:18.561Z,98129.00
2023-03-13T01:49:25.552Z,98118.00
2023-03-13T01:52:09.901Z,98127.00
2023-03-13T01:54:57.300Z,98119.00
2023-03-13T01:57:34.265Z,98115.00
2023-03-13T02:00:20.147Z,98108.00
2023-03-13T02:02:56.256Z,98132.00
2023-03-13T02:05:29.322Z,98095.00
2023-03-13T02:08:11.208Z,98089.00
2023-03-13T02:11:14.875Z,98079.00
2023-03-13T02:13:47.064Z,98074.00
2023-03-13T02:16:20.882Z,98069.00
2023-03-13T02:18:51.878Z,98062.00
2023-03-13T02:22:13.702Z,98076.00
2023-03-13T02:25:13.390Z,98076.00
2023-03-13T02:27:46.355Z,98067.00
2023-03-13T02:30:17.309Z,98062.00
2023-03-13T02:32:48.516Z,98061.00
2023-03-13T02:35:22.466Z,98068.00
2023-03-13T02:38:06.175Z,98058.00
2023-03-13T02:40:42.441Z,98041.00
2023-03-13T02:43:35.455Z,98033.00
2023-03-13T02:46:15.312Z,98028.00
2023-03-13T02:48:50.931Z,98026.00
2023-03-13T02:51:42.416Z,98022.00
2023-03-13T02:54:24.457Z,98004.00
2023-03-13T02:56:59.183Z,98001.00
2023-03-13T02:59:30.398Z,97997.00
2023-03-13T03:02:01.345Z,97986.00
2023-03-13T03:04:32.270Z,97987.00
2023-03-13T03:07:03.149Z,97986.00
2023-03-13T03:09:34.027Z,97974.00
2023-03-13T03:12:05.490Z,97964.00
2023-03-13T03:14:36.808Z,97967.00
2023-03-13T03:17:07.819Z,97970.00
2023-03-13T03:19:38.705Z,97966.00
2023-03-13T03:22:09.766Z,97969.00
2023-03-13T03:24:40.683Z,97957.00
2023-03-13T03:27:11.575Z,97962.00
2023-03-13T03:29:42.484Z,97987.00
2023-03-13T03:32:13.383Z,97967.00
2023-03-13T03:34:44.270Z,97961.00
2023-03-13T03:37:15.131Z,97956.00
2023-03-13T03:39:46.030Z,97961.00
2023-03-13T03:42:17.018Z,97957.00
2023-03-13T03:44:47.881Z,97956.00
2023-03-13T03:47:18.889Z,97954.00
2023-03-13T03:49:49.791Z,97945.00
2023-03-13T03:52:20.674Z,97944.00
2023-03-13T03:54:51.549Z,97940.00
2023-03-13T03:57:22.738Z,97944.00
2023-03-13T03:59:53.638Z,97939.00
2023-03-13T04:02:24.614Z,97934.00
2023-03-13T04:04:55.539Z,97943.00
2023-03-13T04:07:26.462Z,97945.00
2023-03-13T04:09:57.369Z,97952.00
2023-03-13T04:12:28.295Z,97935.00
2023-03-13T04:14:59.144Z,97938.00
2023-03-13T04:17:31.212Z,97924.00
2023-03-13T04:20:02.101Z,97920.00
2023-03-13T04:22:33.038Z,97919.00
2023-03-13T04:25:04.320Z,97919.00
2023-03-13T04:27:35.695Z,97914.00
2023-03-13T04:30:07.909Z,97919.00
2023-03-13T04:32:38.943Z,97916.00
2023-03-13T04:35:10.180Z,97912.00
2023-03-13T04:37:41.094Z,97908.00
2023-03-13T04:40:13.640Z,97906.00
2023-03-13T04:42:44.582Z,97893.00
2023-03-13T04:45:15.710Z,97914.00
2023-03-13T04:47:47.296Z,97919.00
2023-03-13T04:50:18.239Z,97915.00
2023-03-13T04:52:49.726Z,97907.00
2023-03-13T04:55:21.403Z,97913.00
2023-03-13T04:57:52.268Z,97897.00
2023-03-13T05:00:23.396Z,97904.00
2023-03-13T05:02:54.353Z,97908.00
2023-03-13T05:05:25.346Z,97906.00
2023-03-13T05:07:56.284Z,97908.00
2023-03-13T05:10:27.315Z,97908.00
2023-03-13T05:12:58.730Z,97897.00
2023-03-13T05:15:32.900Z,97900.00
2023-03-13T05:18:04.045Z,97920.00
2023-03-13T05:20:35.042Z,97903.00
2023-03-13T05:23:05.984Z,97913.00
2023-03-13T05:25:36.848Z,97897.00
2023-03-13T05:28:07.781Z,97911.00
2023-03-13T05:30:38.696Z,97905.00
2023-03-13T05:33:09.585Z,97935.00
2023-03-13T05:35:40.616Z,97902.00
2023-03-13T05:38:12.057Z,97897.00
2023-03-13T05:40:42.925Z,97898.00
2023-03-13T05:43:13.835Z,97889.00
2023-03-13T05:45:44.701Z,97876.00
2023-03-13T05:48:15.570Z,97891.00
2023-03-13T05:50:47.207Z,97896.00
2023-03-13T05:53:18.105Z,97893.00
2023-03-13T05:55:49.034Z,97898.00
2023-03-13T05:58:19.993Z,97896.00
2023-03-13T06:00:50.827Z,97897.00
2023-03-13T06:03:21.857Z,97883.00
2023-03-13T06:05:59.234Z,97879.00
2023-03-13T06:08:30.362Z,97891.00
2023-03-13T06:11:03.360Z,97883.00
2023-03-13T06:13:34.400Z,97891.00
2023-03-13T06:16:06.087Z,97884.00
2023-03-13T06:18:37.284Z,97889.00
2023-03-13T06:21:08.276Z,97885.00
2023-03-13T06:23:39.200Z,97894.00
2023-03-13T06:26:10.157Z,97890.00
2023-03-13T06:28:41.369Z,97894.00
2023-03-13T06:31:12.298Z,97904.00
2023-03-13T06:33:43.414Z,97887.00
2023-03-13T06:36:14.376Z,97883.00
2023-03-13T06:38:45.427Z,97892.00
2023-03-13T06:41:16.909Z,97865.00
2023-03-13T06:43:47.859Z,97890.00
2023-03-13T06:46:22.904Z,97890.00
2023-03-13T06:48:53.949Z,97872.00
2023-03-13T06:51:26.396Z,97869.00
2023-03-13T06:53:57.304Z,97886.00
2023-03-13T06:56:28.406Z,97889.00
2023-03-13T06:59:00.115Z,97895.00
2023-03-13T07:01:31.300Z,97905.00
2023-03-13T07:04:02.441Z,97903.00
2023-03-13T07:06:33.470Z,97898.00
2023-03-13T07:09:05.207Z,97905.00
2023-03-13T07:11:36.169Z,97898.00
2023-03-13T07:14:16.610Z,97908.00
2023-03-13T07:16:48.380Z,97900.00
2023-03-13T07:19:19.365Z,97908.00
2023-03-13T07:21:50.385Z,97901.00
2023-03-13T07:24:21.364Z,97915.00
2023-03-13T07:27:04.801Z,97912.00
2023-03-13T07:29:37.951Z,97908.00
2023-03-13T07:32:09.081Z,97912.00
2023-03-13T07:34:39.969Z,97899.00
2023-03-13T07:37:13.309Z,97907.00
2023-03-13T07:39:44.495Z,97888.00
2023-03-13T07:42:15.424Z,97895.00
2023-03-13T07:44:46.652Z,97884.00
2023-03-13T07:47:17.732Z,97883.00
2023-03-13T07:49:48.584Z,97875.00
2023-03-13T07:52:19.635Z,97873.00
2023-03-13T07:54:50.513Z,97871.00
2023-03-13T07:57:21.423Z,97868.00
2023-03-13T07:59:52.260Z,97870.00
2023-03-13T08:02:23.215Z,97863.00
2023-03-13T08:04:54.148Z,97857.00
2023-03-13T08:07:25.035Z,97846.00
2023-03-13T08:09:55.910Z,97843.00
2023-03-13T08:12:26.806Z,97855.00
2023-03-13T08:14:57.980Z,97843.00
2023-03-13T08:17:32.534Z,97817.00
2023-03-13T08:20:03.972Z,97815.00
2023-03-13T08:22:37.122Z,97818.00
2023-03-13T08:25:08.253Z,97810.00
2023-03-13T08:27:39.204Z,97805.00
2023-03-13T08:30:10.958Z,97796.00
2023-03-13T08:32:41.985Z,97803.00
2023-03-13T08:35:13.010Z,97810.00
2023-03-13T08:37:43.938Z,97813.00
2023-03-13T08:40:15.047Z,97822.00
2023-03-13T08:42:45.979Z,97807.00
2023-03-13T08:45:16.912Z,97812.00
2023-03-13T08:47:52.593Z,97825.00
2023-03-13T08:50:23.530Z,97820.00
2023-03-13T08:52:54.462Z,97821.00
2023-03-13T08:55:26.581Z,97818.00
2023-03-13T08:57:57.624Z,97827.00
2023-03-13T09:00:28.484Z,97813.00
2023-03-13T09:02:59.471Z,97831.00
2023-03-13T09:05:30.362Z,97830.00
2023-03-13T09:08:01.492Z,97820.00
2023-03-13T09:10:35.999Z,97809.00
2023-03-13T09:13:06.957Z,97812.00
2023-03-13T09:15:38.147Z,97809.00
2023-03-13T09:18:09.176Z,97820.00
2023-03-13T09:20:40.065Z,97818.00
2023-03-13T09:23:10.969Z,97818.00
2023-03-13T09:25:41.899Z,97819.00
2023-03-13T09:28:13.031Z,97817.00
2023-03-13T09:30:43.992Z,97808.00
2023-03-13T09:33:14.927Z,97796.00
2023-03-13T09:35:50.882Z,97824.00
2023-03-13T09:38:22.148Z,97810.00
2023-03-13T09:41:05.688Z,97818.00
2023-03-13T09:44:09.911Z,97829.00
2023-03-13T09:46:54.776Z,97826.00
2023-03-13T09:49:28.620Z,97817.00
2023-03-13T09:52:22.190Z,97834.00
2023-03-13T09:55:28.683Z,97818.00
2023-03-13T09:58:21.263Z,97821.00
2023-03-13T10:00:58.176Z,97795.00
2023-03-13T10:03:58.236Z,97791.00
2023-03-13T10:06:35.924Z,97793.00
2023-03-13T10:09:22.688Z,97783.00
2023-03-13T10:12:06.194Z,97785.00
2023-03-13T10:14:48.849Z,97777.00
2023-03-13T10:17:39.913Z,97765.00
2023-03-13T10:20:10.873Z,97765.00
2023-03-13T10:22:44.665Z,97750.00
2023-03-13T10:25:28.931Z,97748.00
2023-03-13T10:28:00.805Z,97747.00
2023-03-13T10:30:40.851Z,97737.00
2023-03-13T10:33:11.681Z,97736.00
2023-03-13T10:35:44.302Z,97746.00
2023-03-13T10:38:20.172Z,97739.00
2023-03-13T10:41:27.815Z,97757.00
2023-03-13T10:44:06.803Z,97736.00
2023-03-13T10:46:42.780Z,97732.00
2023-03-13T10:49:22.319Z,97737.00
2023-03-13T10:51:58.259Z,97729.00
2023-03-13T10:54:32.693Z,97732.00
2023-03-13T10:57:18.761Z,97732.00
2023-03-13T10:59:52.254Z,97724.00
2023-03-13T11:02:36.032Z,97722.00
2023-03-13T11:05:26.234Z,97718.00
2023-03-13T11:07:57.398Z,97702.00
2023-03-13T11:10:30.020Z,97720.00
2023-03-13T11:13:01.593Z,97723.00
2023-03-13T11:15:57.325Z,97717.00
2023-03-13T11:18:41.128Z,97697.00
2023-03-13T11:21:24.862Z,97707.00
2023-03-13T11:24:07.373Z,97696.00
2023-03-13T11:27:04.537Z,97690.00
2023-03-13T11:29:53.980Z,97703.00
2023-03-13T11:32:41.523Z,97676.00
2023-03-13T11:35:40.695Z,97668.00
2023-03-13T11:38:24.309Z,97657.00
2023-03-13T11:41:40.465Z,97647.00
2023-03-13T11:44:28.638Z,97631.00
2023-03-13T11:47:39.990Z,97624.00
2023-03-13T11:50:24.021Z,97606.00
2023-03-13T11:53:55.714Z,97601.00
2023-03-13T11:56:55.326Z,97589.00
2023-03-13T11:59:28.824Z,97593.00
2023-03-13T12:02:31.679Z,97577.00
2023-03-13T12:05:09.938Z,97572.00
2023-03-13T12:07:49.740Z,97567.00
2023-03-13T12:10:35.206Z,97554.00
2023-03-13T12:13:21.501Z,97565.00
2023-03-13T12:15:58.945Z,97541.00
2023-03-13T12:18:43.830Z,97537.00
2023-03-13T12:21:37.436Z,97534.00
2023-03-13T12:24:27.718Z,97514.00
2023-03-13T12:27:19.140Z,97509.00
2023-03-13T12:29:59.442Z,97501.00
2023-03-13T12:33:06.092Z,97493.00
2023-03-13T12:35:41.205Z,97475.00
2023-03-13T12:38:26.691Z,97482.00
2023-03-13T12:41:24.938Z,97460.00
2023-03-13T12:44:11.502Z,97452.00
2023-03-13T12:47:29.730Z,97445.00
2023-03-13T12:50:15.201Z,97443.00
2023-03-13T12:53:22.098Z,97425.00
2023-03-13T12:56:08.220Z,97415.00
2023-03-13T12:59:14.765Z,97397.00
2023-03-13T13:01:55.236Z,97388.00
2023-03-13T13:04:31.102Z,97382.00
2023-03-13T13:07:06.782Z,97385.00
2023-03-13T13:10:01.539Z,97377.00
2023-03-13T13:12:32.594Z,97371.00
2023-03-13T13:15:26.448Z,97380.00
2023-03-13T13:18:13.953Z,97360.00
2023-03-13T13:21:03.012Z,97346.00
2023-03-13T13:23:46.818Z,97336.00
2023-03-13T13:26:26.933Z,97330.00
2023-03-13T13:29:00.286Z,97341.00
2023-03-13T13:31:50.871Z,97323.00
2023-03-13T13:34:31.695Z,97307.00
2023-03-13T13:37:23.918Z,97315.00
2023-03-13T13:40:20.145Z,97310.00
2023-03-13T13:43:02.947Z,97292.00
2023-03-13T13:45:36.971Z,97299.00
2023-03-13T13:48:32.774Z,97282.00
2023-03-13T13:51:14.038Z,97282.00
2023-03-13T13:53:59.890Z,97273.00
2023-03-13T13:56:51.144Z,97277.00
2023-03-13T13:59:22.117Z,97265.00
2023-03-13T14:02:10.268Z,97270.00
2023-03-13T14:04:55.311Z,97255.00
2023-03-13T14:07:55.364Z,97255.00
2023-03-13T14:10:32.341Z,97246.00
2023-03-13T14:13:19.209Z,97238.00
2023-03-13T14:15:55.192Z,97236.00
2023-03-13T14:18:30.812Z,97219.00
2023-03-13T14:21:14.305Z,97224.00
2023-03-13T14:23:46.716Z,97215.00
2023-03-13T14:26:24.970Z,97213.00
2023-03-13T14:29:07.790Z,97208.00
2023-03-13T14:31:39.942Z,97198.00
2023-03-13T14:34:13.043Z,97189.00
2023-03-13T14:37:07.404Z,97190.00
2023-03-13T14:39:48.798Z,97178.00
2023-03-13T14:42:19.937Z,97162.00
2023-03-13T14:44:53.968Z,97169.00
2023-03-13T14:47:30.873Z,97150.00
2023-03-13T14:50:05.707Z,97151.00
2023-03-13T14:52:39.658Z,97134.00
2023-03-13T14:55:32.849Z,97139.00
2023-03-13T14:58:30.263Z,97123.00
2023-03-13T15:01:27.170Z,97124.00
2023-03-13T15:03:58.219Z,97105.00
2023-03-13T15:06:29.492Z,97112.00
2023-03-13T15:09:20.645Z,97110.00
2023-03-13T15:12:01.742Z,97097.00
2023-03-13T15:14:45.149Z,97083.00
2023-03-13T15:17:22.439Z,97097.00
2023-03-13T15:19:56.534Z,97077.00
2023-03-13T15:22:33.695Z,97061.00
2023-03-13T15:25:16.293Z,97053.00
2023-03-13T15:27:48.761Z,97041.00
2023-03-13T15:30:23.707Z,97034.00
2023-03-13T15:32:54.646Z,97031.00
2023-03-13T15:35:32.505Z,97037.00
2023-03-13T15:38:03.750Z,97023.00
2023-03-13T15:40:34.654Z,97002.00
2023-03-13T15:43:05.596Z,97006.00
2023-03-13T15:45:39.020Z,96987.00
2023-03-13T15:48:20.626Z,96998.00
2023-03-13T15:51:14.341Z,97009.00
2023-03-13T15:53:46.359Z,96987.00
2023-03-13T15:56:22.763Z,96987.00
2023-03-13T15:58:53.856Z,96982.00
2023-03-13T16:01:24.930Z,96986.00
2023-03-13T16:03:58.210Z,96969.00
2023-03-13T16:06:31.439Z,96967.00
2023-03-13T16:09:06.596Z,96968.00
2023-03-13T16:11:37.668Z,96979.00
2023-03-13T16:14:08.641Z,96952.00
2023-03-13T16:16:39.826Z,96947.00
2023-03-13T16:19:10.869Z,96937.00
2023-03-13T16:21:45.257Z,96927.00
2023-03-13T16:24:17.770Z,96917.00
2023-03-13T16:26:48.728Z,96923.00
2023-03-13T16:29:19.615Z,96918.00
2023-03-13T16:31:50.515Z,96921.00
2023-03-13T16:34:21.400Z,96922.00
2023-03-13T16:36:52.285Z,96926.00
2023-03-13T16:39:23.179Z,96917.00
2023-03-13T16:41:54.026Z,96910.00
2023-03-13T16:44:27.315Z,96920.00
2023-03-13T16:47:05.696Z,96923.00
2023-03-13T16:49:37.160Z,96916.00
2023-03-13T16:52:15.370Z,96917.00
2023-03-13T16:54:46.849Z,96912.00
2023-03-13T16:57:24.171Z,96909.00
2023-03-13T16:59:55.039Z,96905.00
2023-03-13T17:02:25.949Z,96891.00
2023-03-13T17:04:56.909Z,96895.00
2023-03-13T17:07:29.572Z,96895.00
2023-03-13T17:10:00.534Z,96891.00
2023-03-13T17:12:31.390Z,96886.00
2023-03-13T17:15:02.336Z,96888.00
2023-03-13T17:17:34.822Z,96877.00
2023-03-13T17:20:09.637Z,96876.00
2023-03-13T17:22:40.801Z,96881.00
2023-03-13T17:25:12.197Z,96873.00
2023-03-13T17:27:44.009Z,96866.00
2023-03-13T17:30:27.689Z,96865.00
2023-03-13T17:32:59.800Z,96865.00
2023-03-13T17:35:30.728Z,96854.00
2023-03-13T17:38:01.640Z,96848.00
2023-03-13T17:40:32.731Z,96842.00
2023-03-13T17:43:03.780Z,96837.00
2023-03-13T17:45:36.875Z,96839.00
2023-03-13T17:48:13.296Z,96835.00
2023-03-13T17:50:44.151Z,96823.00
2023-03-13T17:53:15.250Z,96814.00
2023-03-13T17:55:46.572Z,96806.00
2023-03-13T17:58:17.459Z,96800.00
2023-03-13T18:00:48.814Z,96808.00
2023-03-13T18:03:19.846Z,96797.00
2023-03-13T18:05:50.754Z,96785.00
2023-03-13T18:08:21.701Z,96796.00
2023-03-13T18:10:52.889Z,96779.00
2023-03-13T18:13:23.861Z,96768.00
2023-03-13T18:15:54.710Z,96764.00
2023-03-13T18:18:25.886Z,96768.00
2023-03-13T18:20:56.753Z,96756.00
2023-03-13T18:23:27.646Z,96751.00
2023-03-13T18:26:00.027Z,96761.00
2023-03-13T18:28:30.932Z,96776.00
2023-03-13T18:31:01.799Z,96790.00
2023-03-13T18:33:33.889Z,96788.00
2023-03-13T18:36:19.119Z,96835.00
2023-03-13T18:38:50.254Z,96891.00
2023-03-13T18:41:21.275Z,96871.00
2023-03-13T18:43:52.529Z,96860.00
2023-03-13T18:46:31.762Z,96981.00
2023-03-13T18:49:03.027Z,96992.00
2023-03-13T18:51:33.880Z,97018.00
2023-03-13T18:54:04.925Z,97012.00
2023-03-13T18:56:36.662Z,96953.00
2023-03-13T18:59:14.044Z,96939.00
2023-03-13T19:01:47.136Z,96949.00
2023-03-13T19:04:19.774Z,96922.00
2023-03-13T19:06:56.938Z,96886.00
2023-03-13T19:09:46.351Z,96873.00
2023-03-13T19:12:17.739Z,96885.00
2023-03-13T19:14:48.665Z,96868.00
2023-03-13T19:17:29.079Z,96873.00
2023-03-13T19:20:00.237Z,96885.00
2023-03-13T19:22:31.120Z,96890.00
2023-03-13T19:25:02.154Z,96898.00
2023-03-13T19:27:33.399Z,96892.00
2023-03-13T19:30:04.881Z,96883.00
2023-03-13T19:32:36.111Z,96880.00
2023-03-13T19:35:07.737Z,96896.00
2023-03-13T19:37:40.410Z,96922.00
2023-03-13T19:40:29.684Z,96932.00
2023-03-13T19:43:03.452Z,96914.00
2023-03-13T19:45:34.439Z,96946.00
2023-03-13T19:48:05.805Z,97016.00
2023-03-13T19:50:36.830Z,97015.00
2023-03-13T19:53:07.705Z,97010.00
2023-03-13T19:55:38.583Z,96992.00
2023-03-13T19:58:09.645Z,97015.00
2023-03-13T20:00:40.603Z,97042.00
2023-03-13T20:03:11.575Z,97073.00
2023-03-13T20:05:42.666Z,97137.00
2023-03-13T20:08:13.543Z,97170.00
2023-03-13T20:10:44.408Z,97185.00
2023-03-13T20:13:15.424Z,97194.00
2023-03-13T20:15:46.764Z,97209.00
2023-03-13T20:18:17.662Z,97236.00
2023-03-13T20:20:49.173Z,97271.00
2023-03-13T20:23:20.114Z,97260.00
2023-03-13T20:25:51.245Z,97283.00
2023-03-13T20:28:22.468Z,97301.00
2023-03-13T20:30:54.828Z,97300.00
2023-03-13T20:33:25.764Z,97282.00
2023-03-13T20:35:59.567Z,97271.00
2023-03-13T20:38:32.622Z,97270.00
2023-03-13T20:41:03.790Z,97287.00
2023-03-13T20:43:36.847Z,97295.00
2023-03-13T20:46:08.094Z,97295.00
2023-03-13T20:48:39.892Z,97303.00
2023-03-13T20:51:10.826Z,97312.00
2023-03-13T20:53:43.176Z,97296.00
2023-03-13T20:56:14.044Z,97284.00
2023-03-13T20:58:44.932Z,97276.00
2023-03-13T21:01:19.753Z,97267.00
2023-03-13T21:03:51.081Z,97255.00
2023-03-13T21:06:22.152Z,97260.00
2023-03-13T21:08:53.118Z,97256.00
2023-03-13T21:11:24.280Z,97269.00
2023-03-13T21:13:55.531Z,97261.00
2023-03-13T21:16:27.428Z,97231.00
2023-03-13T21:18:58.420Z,97200.00
2023-03-13T21:21:29.574Z,97242.00
2023-03-13T21:24:10.029Z,97281.00
2023-03-13T21:26:40.900Z,97307.00
2023-03-13T21:29:11.964Z,97304.00
2023-03-13T21:31:42.867Z,97308.00
2023-03-13T21:34:13.794Z,97321.00
2023-03-13T21:36:44.730Z,97307.00
2023-03-13T21:39:16.052Z,97287.00
2023-03-13T21:41:46.943Z,97262.00
2023-03-13T21:44:19.689Z,97207.00
2023-03-13T21:46:51.722Z,97197.00
2023-03-13T21:49:22.805Z,97204.00
2023-03-13T21:51:56.371Z,97216.00
2023-03-13T21:54:27.541Z,97217.00
2023-03-13T21:56:58.419Z,97219.00
2023-03-13T21:59:30.389Z,97228.00
2023-03-13T22:02:02.059Z,97199.00
2023-03-13T22:04:33.234Z,97173.00
2023-03-13T22:07:04.399Z,97165.00
2023-03-13T22:09:35.333Z,97138.00
2023-03-13T22:12:06.325Z,97113.00
2023-03-13T22:14:37.322Z,97101.00
2023-03-13T22:17:08.710Z,97100.00
2023-03-13T22:19:39.607Z,97109.00
2023-03-13T22:22:10.510Z,97139.00
2023-03-13T22:24:41.666Z,97160.00
2023-03-13T22:27:12.930Z,97147.00
2023-03-13T22:29:43.961Z,97134.00
2023-03-13T22:32:16.873Z,97107.00
2023-03-13T22:34:49.062Z,97084.00
2023-03-13T22:37:22.252Z,97080.00
2023-03-13T22:39:54.465Z,97060.00
2023-03-13T22:42:26.137Z,97051.00
2023-03-13T22:44:57.564Z,97039.00
2023-03-13T22:47:29.120Z,97042.00
2023-03-13T22:49:59.985Z,97042.00
2023-03-13T22:52:31.945Z,97045.00
2023-03-13T22:55:03.103Z,97064.00
2023-03-13T22:57:34.126Z,97122.00
2023-03-13T23:00:07.124Z,97097.00
2023-03-13T23:02:38.002Z,97113.00
2023-03-13T23:05:09.755Z,97129.00
2023-03-13T23:07:40.987Z,97126.00
2023-03-13T23:10:12.906Z,97136.00
2023-03-13T23:12:44.191Z,97137.00
2023-03-13T23:15:15.070Z,97140.00
2023-03-13T23:17:45.975Z,97161.00
2023-03-13T23:20:17.144Z,97147.00
2023-03-13T23:22:50.128Z,97165.00
2023-03-13T23:25:23.029Z,97149.00
2023-03-13T23:27:54.018Z,97123.00
2023-03-13T23:30:24.885Z,97094.00
2023-03-13T23:32:56.088Z,97071.00
2023-03-13T23:35:27.030Z,97058.00
2023-03-13T23:37:57.930Z,97061.00
2023-03-13T23:40:29.022Z,97067.00
2023-03-13T23:42:59.952Z,97088.00
2023-03-13T23:45:31.136Z,97121.00
2023-03-13T23:48:02.344Z,97136.00
2023-03-13T23:50:33.281Z,97148.00
2023-03-13T23:53:04.157Z,97141.00
2023-03-13T23:55:35.051Z,97138.00
2023-03-13T23:58:05.942Z,97133.00
